Terminal Aerodrome Forecast
Issued by NWS

Home | Current Version | Previous Version | Text Only | Print | Product List | Glossary On
Versions: 1 2 3 4 5 6 7 8 9 10 11 12 13 14 15 16 17 18
000
FTUS43 KIWX 260200 AAA
TAFSBN
TAF AMD
KSBN 260241Z 2603/2624 19006KT P6SM BKN050
     FM260600 18006KT P6SM VCSH BKN040
     FM261300 21007KT P6SM BKN040 OVC080
     FM261700 23011KT P6SM BKN050=

USA.gov is the U.S. government's official web portal to all federal, state and local government web resources and services.